Time;durP1;ratioP1;P1;durP2;ratioP2;P2;SDS_P1;SDS_P2;PMS_P1;PMS_P2;Temp;Humidity;BMP_temperature;BMP_pressure;BME280_temperature;BME280_humidity;BME280_pressure;Samples;Min_cycle;Max_cycle;Signal;HPM_P1;HPM_P2
2024/04/03 00:01:23;;;;;;;9.10;3.70;;;;;;;10.82;83.58;97620.25;4052232;29;20672;-83
2024/04/03 00:03:26;;;;;;;8.43;4.33;;;;;;;10.78;84.11;97613.63;4037560;29;20628;-82
2024/04/03 00:05:28;;;;;;;7.07;4.23;;;;;;;10.76;84.19;97612.06;4071577;29;20630;-83
2024/04/03 00:07:31;;;;;;;6.40;3.00;;;;;;;10.73;85.21;97620.13;4065203;29;20651;-83
2024/04/03 00:09:33;;;;;;;5.60;3.30;;;;;;;10.70;85.06;97617.75;4052721;29;20623;-84
2024/04/03 00:11:36;;;;;;;6.57;3.73;;;;;;;10.68;85.55;97617.88;4048365;29;20615;-83
2024/04/03 00:13:38;;;;;;;7.67;4.10;;;;;;;10.70;86.33;97620.38;4044960;29;20726;-83
2024/04/03 00:15:41;;;;;;;7.20;3.87;;;;;;;10.71;86.43;97633.28;4047855;29;20725;-83
2024/04/03 00:17:43;;;;;;;9.33;4.03;;;;;;;10.70;85.42;97622.97;4051428;29;20628;-83
2024/04/03 00:19:44;;;;;;;8.73;3.97;;;;;;;10.70;85.54;97622.97;4051280;29;20659;-83
2024/04/03 00:21:50;;;;;;;6.10;3.70;;;;;;;10.70;86.72;97615.16;4078835;28;20617;-83
2024/04/03 00:23:52;;;;;;;6.67;3.90;;;;;;;10.69;86.36;97613.47;4070429;29;21309;-82
2024/04/03 00:25:56;;;;;;;7.03;3.70;;;;;;;10.68;87.02;97611.84;4055417;29;20631;-83
2024/04/03 00:27:59;;;;;;;7.03;3.60;;;;;;;10.67;86.02;97611.00;4048196;29;21276;-83
2024/04/03 00:30:01;;;;;;;8.17;3.67;;;;;;;10.65;86.97;97606.88;4055659;29;20607;-83
2024/04/03 00:32:03;;;;;;;8.23;4.40;;;;;;;10.62;86.14;97605.31;4074415;29;20696;-83
2024/04/03 00:34:05;;;;;;;7.03;4.10;;;;;;;10.60;87.30;97593.31;4051333;29;21026;-82
2024/04/03 00:36:09;;;;;;;7.63;4.30;;;;;;;10.58;86.31;97590.00;4049897;29;20652;-83
2024/04/03 00:38:12;;;;;;;8.20;3.70;;;;;;;10.57;87.63;97591.81;4052109;29;20669;-84
2024/04/03 00:40:15;;;;;;;7.87;3.90;;;;;;;10.55;86.53;97583.25;4047380;29;20647;-83
2024/04/03 00:42:18;;;;;;;6.53;3.77;;;;;;;10.51;87.18;97574.00;4040997;29;20883;-82
2024/04/03 00:44:20;;;;;;;6.40;3.33;;;;;;;10.51;87.12;97573.19;4071458;29;20625;-83
2024/04/03 00:46:23;;;;;;;5.10;3.80;;;;;;;10.49;87.43;97573.31;4071243;29;20628;-83
2024/04/03 00:48:25;;;;;;;6.90;3.40;;;;;;;10.49;87.75;97567.25;4058064;29;20633;-82
2024/04/03 00:50:27;;;;;;;6.13;4.10;;;;;;;10.49;87.83;97580.28;4060532;29;20627;-83
2024/04/03 00:52:28;;;;;;;5.80;3.30;;;;;;;10.50;87.24;97576.75;4053552;29;20672;-83
2024/04/03 00:54:32;;;;;;;6.00;3.30;;;;;;;10.48;87.73;97579.47;4058779;29;20709;-83
2024/04/03 00:56:34;;;;;;;6.60;3.37;;;;;;;10.48;87.03;97578.63;4061228;29;20641;-82
2024/04/03 00:58:37;;;;;;;7.53;3.60;;;;;;;10.47;87.43;97576.97;4070260;29;22063;-82
2024/04/03 01:00:39;;;;;;;5.93;3.47;;;;;;;10.46;87.21;97570.09;4060005;29;20659;-83
2024/04/03 01:02:41;;;;;;;6.70;3.70;;;;;;;10.41;86.78;97567.00;4071699;29;20724;-83
2024/04/03 01:04:42;;;;;;;7.70;2.90;;;;;;;10.37;86.51;97557.75;4070568;29;20729;-82
2024/04/03 01:06:44;;;;;;;4.93;3.50;;;;;;;10.33;87.44;97554.56;4074588;29;20630;-83
2024/04/03 01:08:46;;;;;;;5.23;3.53;;;;;;;10.30;86.88;97542.69;4068585;29;20982;-82
2024/04/03 01:10:49;;;;;;;6.80;3.17;;;;;;;10.28;87.79;97544.59;4039674;29;20621;-81
2024/04/03 01:12:51;;;;;;;5.93;3.70;;;;;;;10.24;87.40;97541.41;4058391;29;20739;-83
2024/04/03 01:14:54;;;;;;;6.83;4.50;;;;;;;10.22;87.57;97538.06;4056426;29;21208;-83
2024/04/03 01:16:56;;;;;;;7.53;3.70;;;;;;;10.20;88.00;97534.75;4078580;29;20778;-82
2024/04/03 01:18:59;;;;;;;9.43;3.40;;;;;;;10.16;88.60;97535.91;4079201;29;20639;-83
2024/04/03 01:21:01;;;;;;;7.87;3.60;;;;;;;10.16;88.78;97533.31;4055448;29;20641;-82
2024/04/03 01:23:03;;;;;;;5.83;3.20;;;;;;;10.16;87.57;97527.28;4078002;29;20637;-83
2024/04/03 01:25:06;;;;;;;5.93;2.80;;;;;;;10.16;86.27;97529.88;4072807;29;20751;-83
2024/04/03 01:27:08;;;;;;;5.07;2.50;;;;;;;10.19;85.98;97520.06;4055795;29;20639;-83
2024/04/03 01:29:10;;;;;;;7.43;3.43;;;;;;;10.22;86.04;97519.81;4045568;29;20620;-82
2024/04/03 01:31:12;;;;;;;4.97;2.20;;;;;;;10.26;85.94;97520.44;4074429;29;20630;-82
2024/04/03 01:33:14;;;;;;;3.33;1.50;;;;;;;10.28;83.98;97514.13;4058781;29;20662;-82
2024/04/03 01:35:17;;;;;;;3.93;1.47;;;;;;;10.31;84.63;97520.91;4058157;29;20632;-83
2024/04/03 01:37:20;;;;;;;5.73;1.97;;;;;;;10.30;84.59;97521.84;4088859;28;20630;-83
2024/04/03 01:39:22;;;;;;;4.83;1.77;;;;;;;10.30;84.12;97517.47;4059997;29;20667;-82
2024/04/03 01:41:25;;;;;;;6.10;2.93;;;;;;;10.26;84.14;97516.03;4077958;29;20741;-83
2024/04/03 01:43:28;;;;;;;5.40;3.30;;;;;;;10.22;84.84;97525.03;4072102;29;20633;-82
2024/04/03 01:45:29;;;;;;;6.90;3.70;;;;;;;10.21;85.77;97517.31;4055033;29;20632;-83
2024/04/03 01:47:32;;;;;;;6.70;3.40;;;;;;;10.11;85.93;97516.38;4068186;29;20638;-83
2024/04/03 01:49:33;;;;;;;6.10;3.60;;;;;;;10.03;86.12;97510.94;4045173;29;20631;-83
2024/04/03 01:51:35;;;;;;;6.20;3.67;;;;;;;10.02;87.36;97514.47;4059007;29;20635;-82
2024/04/03 01:53:36;;;;;;;5.70;3.40;;;;;;;9.99;87.16;97506.88;4076908;28;20750;-82
2024/04/03 01:55:39;;;;;;;5.73;3.23;;;;;;;9.98;87.15;97508.66;4028658;29;21359;-82
2024/04/03 01:57:42;;;;;;;8.40;3.37;;;;;;;9.98;87.64;97508.66;4063152;28;20721;-82
2024/04/03 01:59:43;;;;;;;10.63;4.10;;;;;;;9.98;88.21;97511.28;4069519;29;20750;-82
2024/04/03 02:01:46;;;;;;;10.47;5.07;;;;;;;9.98;88.03;97515.63;4071740;29;20722;-82
2024/04/03 02:03:47;;;;;;;5.27;3.43;;;;;;;9.98;88.47;97507.81;4044296;29;20722;-82
2024/04/03 02:05:50;;;;;;;5.93;3.90;;;;;;;9.97;88.57;97499.19;4048194;29;20628;-83
2024/04/03 02:07:51;;;;;;;8.73;4.30;;;;;;;9.97;88.66;97507.00;4051995;29;20677;-83
2024/04/03 02:09:53;;;;;;;9.55;3.45;;;;;;;9.97;89.13;97499.19;4056001;29;21036;-83
2024/04/03 02:11:55;;;;;;;5.05;3.60;;;;;;;9.94;88.89;97494.22;4055404;29;20303;-83
2024/04/03 02:13:59;;;;;;;4.73;3.40;;;;;;;9.94;89.25;97498.59;4053554;29;20212;-82
2024/04/03 02:16:00;;;;;;;6.33;3.40;;;;;;;9.94;90.04;97504.63;4073006;29;21244;-83
2024/04/03 02:18:04;;;;;;;5.70;2.93;;;;;;;9.96;89.45;97492.31;4052859;29;20632;-83
2024/04/03 02:20:08;;;;;;;7.50;3.00;;;;;;;9.96;89.47;97497.50;4046511;29;21048;-83
2024/04/03 02:22:10;;;;;;;5.78;3.55;;;;;;;9.95;89.74;97505.44;4057381;29;20645;-82
2024/04/03 02:24:11;;;;;;;4.63;3.50;;;;;;;9.92;89.71;97503.88;4069013;29;20199;-83
2024/04/03 02:26:13;;;;;;;8.80;3.73;;;;;;;9.93;89.81;97502.97;4076293;29;20634;-83
2024/04/03 02:28:15;;;;;;;6.40;3.80;;;;;;;9.92;89.62;97496.06;4069542;29;20630;-82
2024/04/03 02:30:20;;;;;;;7.50;3.20;;;;;;;9.92;89.77;97500.44;4076237;29;21233;-83
2024/04/03 02:32:21;;;;;;;8.00;3.55;;;;;;;9.92;90.01;97498.69;4039451;29;21109;-82
2024/04/03 02:34:24;;;;;;;6.43;4.13;;;;;;;9.93;89.51;97496.91;4052460;29;20211;-83
2024/04/03 02:36:25;;;;;;;5.83;3.30;;;;;;;9.93;89.22;97489.94;4055035;29;20635;-82
2024/04/03 02:38:27;;;;;;;5.60;3.10;;;;;;;9.91;89.91;97489.19;4037504;29;21200;-83
2024/04/03 02:40:28;;;;;;;4.70;2.90;;;;;;;9.91;89.63;97498.78;4073003;29;20654;-82
2024/04/03 02:42:34;;;;;;;5.65;3.70;;;;;;;9.89;90.04;97498.91;4074046;28;21020;-82
2024/04/03 02:44:36;;;;;;;7.55;3.78;;;;;;;9.92;90.21;97497.84;4053134;29;20203;-83
2024/04/03 02:46:40;;;;;;;6.35;3.90;;;;;;;9.93;89.86;97497.75;4045907;29;20278;-83
2024/04/03 02:48:41;;;;;;;6.37;3.00;;;;;;;9.91;89.77;97484.00;4042178;29;20264;-82
2024/04/03 02:50:46;;;;;;;6.07;3.33;;;;;;;9.92;89.57;97490.03;4054329;29;20624;-83
2024/04/03 02:52:48;;;;;;;6.80;3.60;;;;;;;9.91;89.66;97483.16;4043612;29;20628;-83
2024/04/03 02:54:53;;;;;;;7.33;3.40;;;;;;;9.89;89.40;97483.28;4056630;29;20762;-82
2024/04/03 02:56:54;;;;;;;5.93;3.20;;;;;;;9.86;88.96;97480.91;4073773;28;20696;-82
2024/04/03 02:58:56;;;;;;;6.93;3.50;;;;;;;9.85;88.49;97486.22;4045264;29;20736;-83
2024/04/03 03:00:59;;;;;;;4.70;2.80;;;;;;;9.83;88.88;97479.47;4056265;29;20227;-83
2024/04/03 03:03:03;;;;;;;6.07;3.70;;;;;;;9.82;89.29;97473.44;4053870;29;20660;-83
2024/04/03 03:05:05;;;;;;;4.95;3.13;;;;;;;9.79;89.08;97467.63;4070814;29;20639;-82
2024/04/03 03:07:08;;;;;;;4.67;3.00;;;;;;;9.79;89.14;97467.63;4057154;29;20203;-83
2024/04/03 03:09:10;;;;;;;5.03;3.50;;;;;;;9.78;89.28;97456.38;4065872;29;20692;-82
2024/04/03 03:11:13;;;;;;;6.57;3.70;;;;;;;9.78;89.80;97458.16;4068151;29;20662;-83
2024/04/03 03:13:16;;;;;;;6.10;3.60;;;;;;;9.78;89.29;97456.38;4065629;29;20627;-83
2024/04/03 03:15:19;;;;;;;5.30;3.60;;;;;;;9.78;89.79;97445.16;4080483;28;20675;-83
2024/04/03 03:17:20;;;;;;;8.80;3.30;;;;;;;9.77;90.22;97443.47;4070775;29;22084;-83
2024/04/03 03:19:24;;;;;;;5.20;3.20;;;;;;;9.78;89.95;97447.75;4054046;29;20721;-83
2024/04/03 03:21:25;;;;;;;6.77;4.00;;;;;;;9.78;90.10;97438.16;4045897;29;20730;-83
2024/04/03 03:23:28;;;;;;;6.97;3.33;;;;;;;9.79;89.85;97442.44;4056760;29;20705;-83
2024/04/03 03:25:30;;;;;;;4.97;3.10;;;;;;;9.80;89.92;97438.03;4068017;29;21196;-83
2024/04/03 03:27:33;;;;;;;6.30;3.20;;;;;;;9.81;90.19;97437.09;4040974;29;20624;-83
2024/04/03 03:29:35;;;;;;;5.23;3.20;;;;;;;9.82;89.72;97430.94;4072218;29;20627;-83
2024/04/03 03:31:37;;;;;;;4.40;2.90;;;;;;;9.82;88.86;97431.78;4073442;29;20693;-82
2024/04/03 03:33:38;;;;;;;5.67;2.97;;;;;;;9.84;90.09;97427.28;4069401;29;20637;-82
2024/04/03 03:35:43;;;;;;;4.10;2.70;;;;;;;9.84;89.98;97425.50;4072525;29;20635;-82
2024/04/03 03:37:47;;;;;;;6.30;3.20;;;;;;;9.85;89.77;97421.94;4069610;28;21335;-83
2024/04/03 03:39:49;;;;;;;5.20;2.87;;;;;;;9.85;90.81;97423.72;4054260;29;20643;-83
2024/04/03 03:41:52;;;;;;;5.00;2.70;;;;;;;9.82;90.50;97407.50;4071664;28;20741;-83
2024/04/03 03:43:54;;;;;;;5.40;2.87;;;;;;;9.82;90.22;97417.91;4072986;29;21770;-83
2024/04/03 03:45:56;;;;;;;5.40;3.10;;;;;;;9.81;90.40;97405.84;4071512;29;20689;-83
2024/04/03 03:47:57;;;;;;;7.73;3.10;;;;;;;9.81;90.20;97411.06;4067454;29;21224;-83
2024/04/03 03:52:37;;;;;;;4.97;2.80;;;;;;;9.80;90.48;97405.00;4083157;28;21043;-82
2024/04/03 03:54:39;;;;;;;4.53;2.80;;;;;;;9.81;90.33;97398.84;4085773;28;20716;-83
2024/04/03 03:56:41;;;;;;;4.13;2.93;;;;;;;9.82;91.14;97399.69;4072153;29;20654;-83
2024/04/03 03:58:43;;;;;;;6.00;3.38;;;;;;;9.81;90.39;97396.25;4042205;29;21012;-83
2024/04/03 04:00:45;;;;;;;4.80;2.60;;;;;;;9.82;90.36;97389.25;4071997;29;20240;-82
2024/04/03 04:02:47;;;;;;;8.10;3.90;;;;;;;9.81;90.17;97383.25;4053066;29;20620;-83
2024/04/03 04:04:50;;;;;;;5.22;3.10;;;;;;;9.83;90.52;97383.13;4067874;29;20634;-83
2024/04/03 04:06:51;;;;;;;9.80;3.40;;;;;;;9.82;90.08;97379.69;4069581;29;20765;-83
2024/04/03 04:08:55;;;;;;;6.20;3.17;;;;;;;9.83;90.09;97385.72;4044625;29;20628;-84
2024/04/03 04:10:59;;;;;;;6.23;2.90;;;;;;;9.83;90.16;97381.34;4073408;29;20637;-83
2024/04/03 04:13:01;;;;;;;6.60;3.20;;;;;;;9.84;89.96;97381.22;4053993;29;20667;-83
2024/04/03 04:15:04;;;;;;;7.60;3.00;;;;;;;9.84;89.68;97378.63;4073160;29;20656;-83
2024/04/03 04:17:07;;;;;;;5.20;3.00;;;;;;;9.84;89.93;97375.19;4057583;29;20620;-83
2024/04/03 04:19:09;;;;;;;5.43;3.20;;;;;;;9.81;90.38;97374.59;4069922;29;20729;-83
2024/04/03 04:21:15;;;;;;;6.20;3.28;;;;;;;9.81;90.54;97377.22;4086508;28;20662;-83
2024/04/03 04:23:16;;;;;;;10.17;3.00;;;;;;;9.81;90.52;97374.59;4057643;29;20203;-83
2024/04/03 04:25:20;;;;;;;9.60;3.23;;;;;;;9.81;90.73;97382.41;4073516;29;20626;-83
2024/04/03 04:27:22;;;;;;;5.43;2.90;;;;;;;9.80;90.08;97380.75;4070886;29;21200;-83
2024/04/03 04:29:25;;;;;;;5.30;3.07;;;;;;;9.79;90.28;97377.31;4056864;29;20630;-82
2024/04/03 04:31:26;;;;;;;6.53;3.50;;;;;;;9.79;90.14;97389.50;4025816;29;20696;-82
2024/04/03 04:33:29;;;;;;;5.80;3.17;;;;;;;9.78;90.49;97382.66;4036796;29;20775;-82
2024/04/03 04:35:30;;;;;;;4.40;3.00;;;;;;;9.76;90.74;97380.16;4052856;29;20623;-83
2024/04/03 04:37:33;;;;;;;4.80;2.60;;;;;;;9.77;90.27;97375.78;4041067;29;20630;-83
2024/04/03 04:39:35;;;;;;;6.70;3.10;;;;;;;9.78;90.28;97391.28;4057956;29;20663;-83
2024/04/03 04:41:39;;;;;;;7.07;3.70;;;;;;;9.76;90.24;97382.78;4054335;29;20655;-83
2024/04/03 04:43:40;;;;;;;5.50;3.50;;;;;;;9.74;90.93;97383.81;4056047;29;21052;-83
2024/04/03 04:45:43;;;;;;;9.73;3.83;;;;;;;9.71;90.83;97389.25;4081966;28;20750;-83
2024/04/03 04:47:46;;;;;;;6.43;3.33;;;;;;;9.71;90.85;97384.06;4071003;29;21198;-83
2024/04/03 04:49:49;;;;;;;6.03;3.20;;;;;;;9.71;91.04;97389.25;4020106;29;20631;-83
2024/04/03 04:51:51;;;;;;;4.93;3.10;;;;;;;9.72;90.87;97389.16;4060004;29;20659;-82
2024/04/03 04:53:53;;;;;;;6.40;2.90;;;;;;;9.71;90.84;97397.91;4059692;29;20718;-83
2024/04/03 04:56:01;;;;;;;4.60;3.17;;;;;;;9.68;90.54;97387.75;4058632;29;20632;-83
2024/04/03 04:58:06;;;;;;;5.13;3.60;;;;;;;9.68;90.69;97392.94;4065855;29;20215;-82
2024/04/03 05:00:08;;;;;;;5.83;2.87;;;;;;;9.68;90.74;97389.50;4071672;29;20643;-82
2024/04/03 05:02:11;;;;;;;6.50;3.10;;;;;;;9.66;91.24;97387.00;4067439;29;20717;-82
2024/04/03 05:04:13;;;;;;;5.80;3.70;;;;;;;9.66;90.68;97383.59;4069793;29;21188;-83
2024/04/03 05:06:16;;;;;;;7.60;3.47;;;;;;;9.66;90.88;97391.41;4039835;29;20207;-83
2024/04/03 05:08:18;;;;;;;9.00;3.20;;;;;;;9.65;90.93;97389.72;4043018;29;20709;-83
2024/04/03 05:10:20;;;;;;;6.87;3.63;;;;;;;9.67;90.91;97390.47;4050603;29;20732;-83
2024/04/03 05:12:22;;;;;;;5.97;3.30;;;;;;;9.67;91.21;97385.25;4081117;28;20614;-82
2024/04/03 05:14:26;;;;;;;5.60;3.07;;;;;;;9.66;91.34;97383.59;4083515;28;21045;-82
2024/04/03 05:16:29;;;;;;;7.70;4.10;;;;;;;9.69;90.56;97378.97;4059110;29;21204;-83
2024/04/03 05:18:30;;;;;;;6.53;3.30;;;;;;;9.71;90.89;97382.31;4057774;29;20634;-83
2024/04/03 05:20:35;;;;;;;4.87;3.40;;;;;;;9.72;91.58;97383.94;4056805;29;21607;-83
2024/04/03 05:22:37;;;;;;;6.53;3.03;;;;;;;9.74;91.14;97386.44;4073426;29;21179;-83
2024/04/03 05:24:42;;;;;;;6.83;3.50;;;;;;;9.75;90.46;97382.88;4053797;29;20643;-83
2024/04/03 05:26:44;;;;;;;8.90;3.37;;;;;;;9.75;90.72;97381.09;4054030;29;20620;-83
2024/04/03 05:28:47;;;;;;;5.53;3.40;;;;;;;9.77;91.06;97386.19;4050953;29;20677;-83
2024/04/03 05:30:49;;;;;;;5.83;3.20;;;;;;;9.75;91.00;97380.28;4044103;29;20647;-83
2024/04/03 05:32:52;;;;;;;4.67;2.70;;;;;;;9.78;90.54;97386.06;4047746;29;20648;-83
2024/04/03 05:34:54;;;;;;;5.87;3.03;;;;;;;9.81;90.20;97382.41;4059364;29;20731;-83
2024/04/03 05:36:56;;;;;;;7.63;3.47;;;;;;;9.84;90.71;97384.78;4063050;29;20742;-82
2024/04/03 05:38:57;;;;;;;5.43;2.67;;;;;;;9.88;90.70;97384.44;4078797;29;20984;-83
2024/04/03 05:41:00;;;;;;;6.53;3.00;;;;;;;9.91;90.67;97390.22;4051753;29;21078;-83
2024/04/03 05:43:01;;;;;;;4.73;2.57;;;;;;;9.96;90.54;97400.31;4073361;29;20645;-83
2024/04/03 05:45:05;;;;;;;8.07;3.57;;;;;;;9.99;90.61;97400.91;4064886;29;20627;-83
2024/04/03 05:47:08;;;;;;;4.43;2.73;;;;;;;10.01;90.45;97404.25;4094593;28;20628;-83
2024/04/03 05:49:12;;;;;;;7.23;2.90;;;;;;;10.04;89.84;97409.22;4062170;29;20627;-83
2024/04/03 05:51:13;;;;;;;5.93;3.10;;;;;;;10.05;89.57;97416.06;4069362;29;21055;-83
2024/04/03 05:53:16;;;;;;;6.60;3.50;;;;;;;10.06;89.36;97416.91;4043268;29;20659;-82
2024/04/03 05:55:17;;;;;;;9.60;3.20;;;;;;;10.06;89.38;97409.09;4059080;29;20857;-82
2024/04/03 05:57:19;;;;;;;6.80;3.58;;;;;;;10.09;89.55;97414.06;4075070;29;20646;-82
2024/04/03 05:59:22;;;;;;;9.83;3.50;;;;;;;10.11;89.76;97418.19;4056448;29;20211;-83
2024/04/03 06:01:25;;;;;;;5.23;3.10;;;;;;;10.15;89.99;97413.56;4071019;29;20657;-85
2024/04/03 06:03:27;;;;;;;7.13;3.20;;;;;;;10.15;88.25;97419.63;4076988;28;20643;-85
2024/04/03 06:05:30;;;;;;;7.30;3.30;;;;;;;10.17;89.20;97417.72;4060174;29;20630;-83
2024/04/03 06:07:32;;;;;;;7.07;3.13;;;;;;;10.19;88.93;97410.63;4037827;29;20728;-84
2024/04/03 06:09:34;;;;;;;8.23;3.13;;;;;;;10.23;90.45;97422.47;4059928;29;20650;-84
2024/04/03 06:11:36;;;;;;;5.73;3.70;;;;;;;10.26;89.87;97417.03;4043469;29;20649;-82
2024/04/03 06:13:38;;;;;;;6.13;3.27;;;;;;;10.32;90.04;97428.75;4048815;29;20660;-82
2024/04/03 06:15:40;;;;;;;5.77;3.00;;;;;;;10.39;89.56;97430.75;4032693;29;20629;-82
2024/04/03 06:17:42;;;;;;;6.13;3.27;;;;;;;10.46;89.51;97429.31;4077721;29;20663;-86
2024/04/03 06:19:45;;;;;;;7.43;4.00;;;;;;;10.52;89.07;97434.06;4075906;29;20629;-84
2024/04/03 06:21:47;;;;;;;5.43;3.37;;;;;;;10.56;89.27;97428.47;4059166;29;21323;-84
2024/04/03 06:23:48;;;;;;;7.87;4.10;;;;;;;10.64;89.31;97433.09;4063216;29;20630;-83
2024/04/03 06:25:51;;;;;;;6.83;3.27;;;;;;;10.68;90.88;97437.13;4056808;29;21230;-83
2024/04/03 06:27:53;;;;;;;8.03;3.80;;;;;;;10.73;90.48;97440.19;4064031;29;20630;-84
2024/04/03 06:29:56;;;;;;;6.50;3.70;;;;;;;10.77;90.28;97444.22;4065848;29;20647;-84
2024/04/03 06:31:58;;;;;;;12.83;8.20;;;;;;;10.80;90.76;97451.81;4063463;29;21290;-83
2024/04/03 06:34:02;;;;;;;7.67;4.10;;;;;;;10.84;89.66;97459.25;4058161;29;20627;-84
2024/04/03 06:36:05;;;;;;;7.67;4.40;;;;;;;10.87;90.59;97469.47;4059162;29;20744;-83
2024/04/03 06:38:08;;;;;;;7.17;3.80;;;;;;;10.90;90.31;97475.25;4079485;29;20633;-82
2024/04/03 06:40:10;;;;;;;9.97;4.37;;;;;;;10.87;88.47;97472.88;4052023;29;20639;-83
2024/04/03 06:42:12;;;;;;;7.80;3.97;;;;;;;10.86;89.14;97476.44;4031108;29;20654;-83
2024/04/03 06:44:14;;;;;;;5.50;3.33;;;;;;;10.89;88.07;97477.97;4079648;29;20641;-82
2024/04/03 06:46:16;;;;;;;6.23;3.73;;;;;;;10.93;88.82;97482.84;4069112;29;20626;-84
2024/04/03 06:48:18;;;;;;;7.50;3.57;;;;;;;10.98;87.57;97483.28;4061524;29;20629;-84
2024/04/03 06:50:21;;;;;;;6.50;3.80;;;;;;;11.03;87.22;97493.34;4061264;29;21268;-84
2024/04/03 06:52:24;;;;;;;11.70;3.27;;;;;;;11.04;88.30;97495.84;4079049;29;20630;-84
2024/04/03 06:54:26;;;;;;;8.77;3.80;;;;;;;11.09;88.35;97492.88;4072926;29;20638;-84
2024/04/03 06:56:28;;;;;;;6.90;3.20;;;;;;;11.04;86.48;97488.03;4056515;29;21012;-84
2024/04/03 06:58:38;;;;;;;4.00;2.57;;;;;;;11.01;85.51;97485.66;4072945;29;20705;-86
2024/04/03 07:00:39;;;;;;;6.60;3.30;;;;;;;11.06;86.38;97493.13;4091329;28;20630;-84
2024/04/03 07:02:43;;;;;;;5.30;3.10;;;;;;;11.09;88.22;97498.91;4068289;29;20722;-84
2024/04/03 07:04:45;;;;;;;5.90;3.40;;;;;;;11.14;87.11;97499.38;4071570;29;20619;-82
2024/04/03 07:06:48;;;;;;;5.83;3.20;;;;;;;11.12;88.53;97488.22;4065113;29;20635;-84
2024/04/03 07:08:51;;;;;;;6.93;3.73;;;;;;;11.09;88.01;97461.56;4057710;29;20630;-83
2024/04/03 07:10:53;;;;;;;7.60;4.10;;;;;;;11.07;87.82;97460.88;4046591;29;20989;-82
2024/04/03 07:12:57;;;;;;;7.10;4.13;;;;;;;11.01;89.11;97456.94;4064336;29;21128;-81
2024/04/03 07:15:00;;;;;;;7.90;3.77;;;;;;;10.95;89.22;97443.56;4064205;29;20631;-83
2024/04/03 07:17:01;;;;;;;7.63;3.57;;;;;;;10.97;89.12;97446.88;4084048;28;20634;-82
2024/04/03 07:19:03;;;;;;;4.90;3.00;;;;;;;11.06;89.57;97459.19;4055845;29;20679;-83
2024/04/03 07:21:05;;;;;;;5.17;2.90;;;;;;;11.17;89.79;97480.03;4059046;29;20675;-84
2024/04/03 07:23:07;;;;;;;5.80;3.50;;;;;;;11.28;91.75;97488.66;4074670;29;20654;-82
2024/04/03 07:25:11;;;;;;;6.10;3.70;;;;;;;11.36;91.80;97501.91;4055008;29;20671;-83
2024/04/03 07:27:13;;;;;;;5.70;3.30;;;;;;;11.41;92.42;97502.38;4074354;29;20702;-83
2024/04/03 07:29:14;;;;;;;5.80;3.47;;;;;;;11.43;91.42;97511.75;4062780;29;20622;-83
2024/04/03 07:31:17;;;;;;;5.27;3.20;;;;;;;11.43;91.71;97518.75;4056208;29;20717;-84
2024/04/03 07:33:18;;;;;;;8.87;4.03;;;;;;;11.43;91.46;97523.97;4078649;29;20661;-82
2024/04/03 07:35:21;;;;;;;4.67;2.67;;;;;;;11.40;91.81;97535.50;4065329;29;20627;-85
2024/04/03 07:37:23;;;;;;;4.70;2.70;;;;;;;11.35;91.32;97549.84;4076417;29;20686;-84
2024/04/03 07:39:27;;;;;;;7.10;3.23;;;;;;;11.22;92.47;97550.97;4033345;29;20637;-84
2024/04/03 07:41:30;;;;;;;6.33;3.27;;;;;;;11.18;92.52;97549.56;4065922;29;20676;-84
2024/04/03 07:43:33;;;;;;;14.10;9.43;;;;;;;11.09;93.12;97556.31;4087698;28;20685;-83
2024/04/03 07:45:34;;;;;;;7.40;2.83;;;;;;;11.10;93.62;97550.16;4075490;28;20714;-83
2024/04/03 07:47:37;;;;;;;4.90;2.63;;;;;;;11.13;92.83;97552.53;4057935;29;20624;-83
2024/04/03 07:49:39;;;;;;;4.30;2.50;;;;;;;11.23;92.48;97552.63;4078342;29;21199;-83
2024/04/03 07:51:45;;;;;;;4.87;2.60;;;;;;;11.29;93.18;97556.41;4060198;29;20670;-84
2024/04/03 07:53:46;;;;;;;5.63;2.43;;;;;;;11.41;92.01;97555.44;4062963;29;20635;-84
2024/04/03 07:55:50;;;;;;;3.80;2.70;;;;;;;11.48;92.80;97558.41;4061010;29;20643;-83
2024/04/03 07:57:53;;;;;;;7.13;4.50;;;;;;;11.51;94.03;97558.16;4072503;29;21198;-84
2024/04/03 07:59:55;;;;;;;5.80;4.07;;;;;;;11.56;92.95;97550.78;4066811;29;21049;-84
2024/04/03 08:01:57;;;;;;;20.43;16.37;;;;;;;11.63;91.47;97555.38;4054691;29;21344;-84
2024/04/03 08:03:59;;;;;;;7.80;6.83;;;;;;;11.73;91.49;97547.63;4070269;29;20631;-83
2024/04/03 08:06:04;;;;;;;11.63;7.80;;;;;;;11.81;91.94;97546.06;4042021;29;21287;-84
2024/04/03 08:08:07;;;;;;;7.50;6.80;;;;;;;11.88;89.83;97542.81;4074965;29;20630;-84
2024/04/03 08:10:10;;;;;;;9.47;7.00;;;;;;;11.95;90.64;97537.91;4073321;29;20641;-83
2024/04/03 08:12:14;;;;;;;4.60;3.30;;;;;;;12.01;90.07;97534.78;4065622;29;20615;-85
2024/04/03 08:14:18;;;;;;;3.93;2.80;;;;;;;12.08;90.04;97531.53;4063762;29;20627;-85
2024/04/03 08:16:20;;;;;;;7.90;3.43;;;;;;;12.24;92.17;97540.59;4074638;29;20673;-83
2024/04/03 08:18:22;;;;;;;5.53;2.97;;;;;;;12.38;90.57;97536.81;4057305;29;21021;-81
2024/04/03 08:20:25;;;;;;;4.40;2.47;;;;;;;12.51;90.10;97548.75;4047883;29;20625;-83
2024/04/03 08:22:26;;;;;;;4.17;2.47;;;;;;;12.63;89.99;97550.31;4076328;29;21248;-83
2024/04/03 08:24:29;;;;;;;3.90;2.60;;;;;;;12.69;89.68;97545.38;4066371;29;20631;-84
2024/04/03 08:26:30;;;;;;;4.40;2.33;;;;;;;12.66;89.55;97544.81;4060211;29;20637;-83
2024/04/03 08:28:35;;;;;;;3.20;2.10;;;;;;;12.62;88.90;97524.28;4078624;29;20709;-84
2024/04/03 08:30:38;;;;;;;4.80;2.20;;;;;;;12.57;88.56;97521.22;4059294;29;20651;-84
2024/04/03 08:32:40;;;;;;;6.27;2.30;;;;;;;12.56;90.43;97524.81;4042979;29;20700;-84
2024/04/03 08:34:42;;;;;;;3.53;1.93;;;;;;;12.50;91.61;97520.09;4044031;29;20679;-84
2024/04/03 08:36:44;;;;;;;4.43;2.30;;;;;;;12.47;91.53;97517.75;4059430;29;20623;-84
2024/04/03 08:38:46;;;;;;;3.77;2.10;;;;;;;12.47;89.71;97522.97;4070209;29;20665;-86
2024/04/03 08:40:54;;;;;;;6.77;3.60;;;;;;;12.47;89.22;97525.59;4057204;29;20734;-85
2024/04/03 08:42:55;;;;;;;6.77;4.43;;;;;;;12.55;89.74;97528.38;4054342;29;21636;-83
2024/04/03 08:44:58;;;;;;;7.73;3.37;;;;;;;12.62;90.89;97517.25;4077671;29;20611;-83
2024/04/03 08:47:02;;;;;;;32.77;12.23;;;;;;;12.69;89.34;97521.00;4057389;29;21292;-84
2024/04/03 08:49:08;;;;;;;16.70;6.90;;;;;;;12.79;89.90;97520.09;4034394;29;20637;-83
2024/04/03 08:51:11;;;;;;;15.47;5.53;;;;;;;12.87;89.78;97515.06;4059901;29;20631;-83
2024/04/03 08:53:14;;;;;;;58.63;21.40;;;;;;;12.93;90.02;97525.00;4076507;29;20626;-84
2024/04/03 08:55:15;;;;;;;4.93;2.50;;;;;;;13.02;88.90;97512.88;4033374;29;20630;-83
2024/04/03 08:57:17;;;;;;;4.33;1.80;;;;;;;13.07;88.12;97516.75;4060218;29;21040;-84
2024/04/03 08:59:20;;;;;;;13.33;4.80;;;;;;;13.14;89.40;97512.66;4075759;29;21263;-84
2024/04/03 09:01:22;;;;;;;68.60;21.90;;;;;;;13.24;88.86;97506.47;4053261;29;20637;-83
2024/04/03 09:03:25;;;;;;;17.20;6.33;;;;;;;13.40;89.13;97505.94;4089012;28;21138;-83
2024/04/03 09:05:27;;;;;;;5.97;3.10;;;;;;;13.49;88.75;97497.25;4078035;29;20654;-83
2024/04/03 09:07:29;;;;;;;6.20;2.60;;;;;;;13.55;88.09;97500.16;4077405;29;20634;-83
2024/04/03 09:09:32;;;;;;;59.70;19.77;;;;;;;13.58;86.89;97494.66;4079197;29;20655;-83
2024/04/03 09:11:34;;;;;;;15.83;6.63;;;;;;;13.62;86.79;97489.94;4072779;29;20718;-84
2024/04/03 09:13:37;;;;;;;8.80;3.30;;;;;;;13.68;86.61;97490.22;4085592;28;20647;-82
2024/04/03 09:15:38;;;;;;;6.20;2.17;;;;;;;13.73;85.11;97495.88;4070102;29;20702;-85
2024/04/03 09:17:40;;;;;;;37.20;14.03;;;;;;;13.74;84.51;97484.41;4045334;29;20692;-84
2024/04/03 09:19:49;;;;;;;3.77;2.00;;;;;;;13.72;84.36;97492.41;4090722;28;20634;-82
2024/04/03 09:21:51;;;;;;;9.67;3.70;;;;;;;13.81;84.04;97478.47;4093836;28;21027;-83
2024/04/03 09:23:53;;;;;;;19.27;6.13;;;;;;;13.86;84.49;97480.69;4081425;28;21201;-83
2024/04/03 09:25:55;;;;;;;3.83;1.93;;;;;;;13.93;84.83;97477.38;4078547;28;20615;-83
2024/04/03 09:28:01;;;;;;;33.43;20.03;;;;;;;14.02;84.00;97480.97;4064033;29;20690;-83
2024/04/03 09:30:04;;;;;;;11.13;7.23;;;;;;;14.05;84.81;97478.91;4073012;29;20638;-84
2024/04/03 09:32:07;;;;;;;4.20;2.00;;;;;;;14.12;84.56;97474.75;4091924;28;20668;-82
2024/04/03 09:34:11;;;;;;;23.03;15.07;;;;;;;14.17;84.92;97480.41;4073403;29;20643;-83
2024/04/03 09:36:14;;;;;;;3.47;1.80;;;;;;;14.15;83.11;97471.84;4080258;28;20633;-83
2024/04/03 09:38:16;;;;;;;3.80;1.23;;;;;;;14.13;83.13;97464.13;4075872;29;20630;-82
2024/04/03 09:40:18;;;;;;;3.33;1.50;;;;;;;14.19;83.06;97462.72;4048143;29;20633;-83
2024/04/03 09:42:21;;;;;;;3.30;1.30;;;;;;;14.20;81.05;97464.38;4054145;29;20657;-82